Terminal Aerodrome Forecast
Issued by NWS

Home | Current Version | Previous Version | Text Only | Print | Product List | Glossary On
Versions: 1 2 3 4 5 6 7 8 9 10 11 12 13 14 15 16 17 18 19
000
FTUS43 KOAX 111700
TAFBFF
TAF
KBFF 111734Z 1118/1218 01006KT P6SM BKN120
     FM112000 03008KT P6SM VCTS SCT070CB BKN150
     FM112200 04012KT 3SM -TSRA BKN050CB OVC100
     FM120200 09007KT P6SM VCSH BKN100
     FM120900 06005KT P6SM BKN030=

USA.gov is the U.S. government's official web portal to all federal, state and local government web resources and services.